Time;durP1;ratioP1;P1;durP2;ratioP2;P2;SDS_P1;SDS_P2;PMS_P1;PMS_P2;Temp;Humidity;BMP_temperature;BMP_pressure;BME280_temperature;BME280_humidity;BME280_pressure;Samples;Min_cycle;Max_cycle;Signal;HPM_P1;HPM_P2
2021/01/10 00:02:20;;;;;;;30.10;21.30;;;-3.90;99.90;;;-3.33;83.66;98496.31;5228836;28;20217;-80
2021/01/10 00:04:55;;;;;;;29.17;22.83;;;-4.00;99.90;;;-3.46;83.54;98493.06;5230700;28;20254;-80
2021/01/10 00:07:27;;;;;;;26.27;22.00;;;-4.10;99.90;;;-3.52;83.76;98488.22;5229971;28;20197;-81
2021/01/10 00:10:00;;;;;;;29.33;21.60;;;-4.10;99.90;;;-3.63;84.36;98484.44;5247456;28;20258;-80
2021/01/10 00:12:33;;;;;;;29.07;22.73;;;-4.10;99.90;;;-3.58;84.17;98491.56;5248312;28;20224;-80
2021/01/10 00:15:09;;;;;;;30.33;21.73;;;-4.10;99.90;;;-3.50;84.05;98485.91;5250389;28;20205;-81
2021/01/10 00:17:44;;;;;;;30.33;21.47;;;-4.10;99.90;;;-3.51;84.04;98489.13;5232759;28;20284;-80
2021/01/10 00:20:18;;;;;;;27.13;22.17;;;-4.10;99.90;;;-3.45;83.42;98489.84;5229648;28;20602;-80
2021/01/10 00:22:51;;;;;;;29.27;22.67;;;-4.10;99.90;;;-3.58;84.12;98489.97;5228379;28;20278;-80
2021/01/10 00:25:24;;;;;;;29.80;22.23;;;-4.10;99.90;;;-3.56;83.64;98481.06;5235731;28;20290;-82
2021/01/10 00:27:56;;;;;;;27.30;21.53;;;-4.10;99.90;;;-3.64;83.84;98492.59;5232004;28;20546;-80
2021/01/10 00:30:28;;;;;;;30.57;22.43;;;-4.20;99.90;;;-3.61;83.55;98487.09;5229102;28;20691;-82
2021/01/10 00:33:00;;;;;;;27.33;21.40;;;-4.20;99.90;;;-3.69;83.67;98488.69;5229403;28;20229;-80
2021/01/10 00:35:32;;;;;;;29.43;21.47;;;-4.20;99.90;;;-3.69;84.01;98485.28;5228826;28;20205;-79
2021/01/10 00:38:05;;;;;;;27.90;21.17;;;-4.20;99.90;;;-3.69;83.90;98487.75;5246334;28;20204;-81
2021/01/10 00:40:38;;;;;;;27.70;21.73;;;-4.20;99.90;;;-3.69;84.68;98491.19;5249738;28;20291;-79
2021/01/10 00:43:10;;;;;;;28.80;20.93;;;-4.20;99.90;;;-3.77;83.69;98499.34;5242358;28;20223;-80
2021/01/10 00:45:42;;;;;;;26.83;20.90;;;-4.30;99.90;;;-3.56;82.92;98505.16;5249530;28;20212;-80
2021/01/10 00:48:13;;;;;;;27.27;20.70;;;-4.20;99.90;;;-3.66;83.67;98494.06;5247607;28;20201;-80
2021/01/10 00:50:45;;;;;;;25.67;20.47;;;-4.20;99.90;;;-3.67;83.59;98502.22;5247428;28;20206;-81
2021/01/10 00:53:17;;;;;;;26.07;19.87;;;-4.30;99.90;;;-3.83;82.61;98498.59;5228107;28;20225;-80
2021/01/10 00:55:50;;;;;;;24.23;18.77;;;-4.40;99.90;;;-3.77;83.63;98504.34;5228772;28;20201;-80
2021/01/10 00:58:22;;;;;;;26.50;19.80;;;-4.30;99.90;;;-3.84;83.64;98501.78;5228651;28;20282;-80
2021/01/10 01:00:54;;;;;;;24.90;19.63;;;-4.40;99.90;;;-3.80;82.72;98506.47;5228655;28;20205;-81
2021/01/10 01:03:26;;;;;;;26.30;20.20;;;-4.30;99.90;;;-4.01;83.33;98503.81;5228179;28;20228;-82
2021/01/10 01:05:58;;;;;;;22.03;18.27;;;-4.40;99.90;;;-4.05;84.08;98509.16;5243262;28;20195;-80
2021/01/10 01:08:31;;;;;;;23.53;18.17;;;-4.50;99.90;;;-4.02;83.98;98505.44;5249046;28;20291;-82
2021/01/10 01:11:04;;;;;;;25.10;18.90;;;-4.50;99.90;;;-3.93;84.05;98509.06;5233983;28;20284;-80
2021/01/10 01:13:36;;;;;;;25.27;19.00;;;-4.40;99.90;;;-3.97;83.71;98514.38;5228625;28;20225;-80
2021/01/10 01:16:08;;;;;;;27.50;20.23;;;-4.40;99.90;;;-3.95;83.55;98517.06;5228273;28;20237;-80
2021/01/10 01:18:42;;;;;;;26.10;18.70;;;-4.40;99.90;;;-3.90;83.66;98518.53;5234328;28;20197;-82
2021/01/10 01:21:15;;;;;;;25.80;19.87;;;-4.40;99.90;;;-3.92;82.88;98519.94;5248876;28;20653;-79
2021/01/10 01:23:47;;;;;;;28.03;21.50;;;-4.40;99.90;;;-3.97;83.08;98516.00;5241768;28;20227;-83
2021/01/10 01:26:23;;;;;;;25.93;19.67;;;-4.50;99.90;;;-4.01;83.36;98517.19;5249053;28;20582;-83
2021/01/10 01:28:56;;;;;;;28.57;20.53;;;-4.40;99.90;;;-4.02;83.28;98524.50;5247890;28;20191;-80
2021/01/10 01:31:29;;;;;;;25.33;19.63;;;-4.40;99.90;;;-4.00;83.81;98520.63;5248650;28;20587;-80
2021/01/10 01:34:02;;;;;;;29.77;20.50;;;-4.50;99.90;;;-3.97;83.92;98519.38;5234908;28;20728;-80
2021/01/10 01:36:34;;;;;;;28.87;20.23;;;-4.40;99.90;;;-3.89;84.06;98532.81;5227995;28;20295;-80
2021/01/10 01:39:06;;;;;;;29.43;20.50;;;-4.30;99.90;;;-3.84;83.04;98531.75;5227970;28;20201;-80
2021/01/10 01:41:39;;;;;;;27.00;20.07;;;-4.30;99.90;;;-3.80;83.41;98530.53;5244804;28;20192;-80
2021/01/10 01:44:11;;;;;;;25.43;20.03;;;-4.30;99.90;;;-3.72;83.71;98527.34;5245695;28;20235;-81
2021/01/10 01:46:43;;;;;;;28.03;20.30;;;-4.20;99.90;;;-3.64;83.25;98526.69;5227824;28;20200;-81
2021/01/10 01:49:15;;;;;;;26.73;19.43;;;-4.10;99.90;;;-3.67;82.67;98536.31;5241063;28;20196;-81
2021/01/10 01:51:47;;;;;;;24.67;18.43;;;-4.20;99.90;;;-3.62;82.51;98528.66;5248352;28;20224;-80
2021/01/10 01:54:20;;;;;;;28.13;20.27;;;-4.10;99.90;;;-3.44;83.00;98531.59;5234779;28;20203;-80
2021/01/10 01:56:53;;;;;;;25.80;18.77;;;-4.10;99.90;;;-3.58;83.26;98526.53;5227513;28;20210;-83
2021/01/10 01:59:25;;;;;;;27.13;19.27;;;-4.10;99.90;;;-3.60;82.45;98532.97;5229310;28;20574;-80
2021/01/10 02:01:57;;;;;;;24.53;18.43;;;-4.10;99.90;;;-3.50;83.65;98538.38;5238335;28;20213;-80
2021/01/10 02:04:34;;;;;;;23.80;19.17;;;-4.00;99.90;;;-3.44;83.16;98535.00;5248432;28;20292;-80
2021/01/10 02:07:16;;;;;;;26.07;19.07;;;-3.90;99.90;;;-3.32;82.53;98535.59;5241151;28;20185;-80
2021/01/10 02:09:55;;;;;;;24.73;20.87;;;-3.80;99.90;;;-3.24;82.10;98534.91;5228997;28;20617;-83
2021/01/10 02:12:30;;;;;;;23.53;18.67;;;-3.80;99.90;;;-3.24;82.51;98529.91;5228570;28;20597;-81
2021/01/10 02:15:11;;;;;;;25.20;18.23;;;-3.80;99.90;;;-3.23;83.07;98531.72;5228067;28;20240;-82
2021/01/10 02:17:48;;;;;;;24.63;19.70;;;-3.80;99.90;;;-3.14;82.53;98533.53;5248553;28;20633;-82
2021/01/10 02:20:28;;;;;;;25.73;19.20;;;-3.70;99.90;;;-3.22;82.44;98527.59;5243792;28;20475;-81
2021/01/10 02:23:06;;;;;;;23.23;18.90;;;-3.70;99.90;;;-3.11;83.18;98529.78;5231239;28;20216;-79
2021/01/10 02:25:43;;;;;;;28.23;19.60;;;-3.60;99.90;;;-3.07;83.14;98528.53;5231798;28;20253;-82
2021/01/10 02:28:19;;;;;;;24.83;18.33;;;-3.60;99.90;;;-3.05;83.21;98535.50;5247797;28;20188;-81
2021/01/10 02:30:53;;;;;;;26.53;19.13;;;-3.70;99.90;;;-3.03;82.18;98528.22;5240588;28;20644;-81
2021/01/10 02:33:36;;;;;;;26.07;20.17;;;-3.60;99.90;;;-2.92;82.76;98522.84;5230693;28;20267;-81
2021/01/10 02:36:15;;;;;;;25.50;20.37;;;-3.50;99.90;;;-2.96;82.59;98535.72;5239377;28;20191;-81
2021/01/10 02:38:51;;;;;;;29.20;22.10;;;-3.60;99.90;;;-2.92;82.02;98522.84;5249687;28;20192;-80
2021/01/10 02:41:30;;;;;;;28.20;21.67;;;-3.60;99.90;;;-2.90;82.68;98526.44;5237912;28;20283;-83
2021/01/10 02:44:12;;;;;;;33.00;23.37;;;-3.50;99.90;;;-2.92;82.71;98510.34;5251355;28;20302;-81
2021/01/10 02:46:49;;;;;;;28.23;21.50;;;-3.60;99.90;;;-2.83;82.84;98503.97;5250327;28;20188;-81
2021/01/10 02:49:22;;;;;;;25.13;19.43;;;-3.50;99.90;;;-2.84;83.48;98512.16;5251631;28;20196;-81
2021/01/10 02:51:55;;;;;;;24.33;19.07;;;-3.40;99.90;;;-2.87;82.98;98501.78;5247105;28;20220;-81
2021/01/10 02:54:27;;;;;;;26.37;19.73;;;-3.40;99.90;;;-2.74;83.55;98515.03;5231380;28;20203;-81
2021/01/10 02:57:05;;;;;;;25.33;18.93;;;-3.30;99.90;;;-2.66;83.31;98510.03;5247468;28;20207;-82
2021/01/10 02:59:42;;;;;;;22.67;18.70;;;-3.30;99.90;;;-2.77;82.09;98507.19;5230713;28;20201;-81
2021/01/10 03:02:16;;;;;;;24.90;18.83;;;-3.40;99.90;;;-2.83;82.13;98503.97;5231508;28;20454;-81
2021/01/10 03:04:50;;;;;;;22.60;18.97;;;-3.40;99.90;;;-2.78;83.22;98505.38;5231071;28;20217;-81
2021/01/10 03:07:22;;;;;;;27.10;19.30;;;-3.30;99.90;;;-2.68;83.82;98496.47;5236631;28;20286;-82
2021/01/10 03:09:54;;;;;;;22.87;17.23;;;-3.20;99.90;;;-2.60;83.62;98498.28;5251748;28;20200;-81
2021/01/10 03:12:28;;;;;;;24.03;18.57;;;-3.20;99.90;;;-2.54;83.38;98503.97;5249513;28;20231;-82
2021/01/10 03:15:01;;;;;;;22.57;18.80;;;-3.10;99.90;;;-2.48;82.83;98488.78;5251662;28;20228;-82
2021/01/10 03:17:36;;;;;;;22.60;18.67;;;-3.10;99.90;;;-2.47;82.24;98496.47;5246258;28;20197;-81
2021/01/10 03:20:11;;;;;;;23.67;17.67;;;-3.10;99.90;;;-2.39;83.37;98489.84;5231372;28;20310;-81
2021/01/10 03:22:45;;;;;;;23.83;18.40;;;-3.00;99.90;;;-2.41;83.21;98484.66;5235916;28;20208;-82
2021/01/10 03:25:22;;;;;;;24.20;18.93;;;-3.00;99.90;;;-2.33;83.68;98483.94;5251595;28;20287;-81
2021/01/10 03:27:55;;;;;;;22.77;18.67;;;-3.00;99.90;;;-2.34;81.92;98489.69;5241133;28;20657;-81
2021/01/10 03:30:27;;;;;;;22.33;18.30;;;-3.00;99.90;;;-2.23;81.72;98475.91;5235976;28;20203;-81
2021/01/10 03:32:59;;;;;;;23.27;18.17;;;-3.00;99.90;;;-2.21;82.78;98478.56;5250639;28;20232;-81
2021/01/10 03:35:34;;;;;;;24.30;19.57;;;-2.90;99.90;;;-2.23;81.99;98477.50;5245796;28;20189;-82
2021/01/10 03:38:07;;;;;;;23.47;19.80;;;-3.00;99.90;;;-2.27;81.92;98479.66;5230174;28;20658;-82
2021/01/10 03:40:39;;;;;;;22.97;18.23;;;-3.00;99.90;;;-2.23;82.79;98485.94;5236077;28;20203;-80
2021/01/10 03:43:12;;;;;;;25.93;19.17;;;-2.90;99.90;;;-2.17;82.83;98485.75;5250854;28;20217;-81
2021/01/10 03:45:44;;;;;;;24.97;18.80;;;-2.90;99.90;;;-2.21;82.94;98476.06;5249143;28;20195;-81
2021/01/10 03:48:16;;;;;;;20.80;17.63;;;-2.80;99.90;;;-2.23;81.72;98485.94;5250841;28;20709;-81
2021/01/10 03:50:48;;;;;;;22.43;16.93;;;-2.90;99.90;;;-2.23;83.05;98477.50;5232964;28;20204;-82
2021/01/10 03:53:21;;;;;;;22.13;17.70;;;-2.80;99.90;;;-2.15;83.52;98486.78;5229268;28;20248;-81
2021/01/10 03:55:53;;;;;;;22.63;17.00;;;-2.90;99.90;;;-2.15;83.70;98471.75;5247447;28;20196;-81
2021/01/10 03:58:26;;;;;;;23.43;18.00;;;-2.80;99.90;;;-2.15;83.57;98484.28;5251071;28;20230;-82
2021/01/10 04:00:58;;;;;;;23.57;17.83;;;-2.80;99.90;;;-2.12;83.43;98480.56;5239238;28;20194;-81
2021/01/10 04:03:30;;;;;;;21.03;17.37;;;-2.80;99.90;;;-2.10;82.28;98483.22;5229635;28;20228;-81
2021/01/10 04:06:02;;;;;;;26.70;19.53;;;-2.80;99.90;;;-2.03;83.46;98480.72;5247341;28;20204;-81
2021/01/10 04:08:33;;;;;;;23.37;17.73;;;-2.80;99.90;;;-1.98;82.38;98481.22;5250713;28;20203;-81
2021/01/10 04:11:07;;;;;;;26.40;19.73;;;-2.70;99.90;;;-2.04;83.33;98477.28;5231996;28;20208;-84
2021/01/10 04:13:39;;;;;;;22.87;17.80;;;-2.70;99.90;;;-2.06;83.25;98475.31;5230161;28;20228;-81
2021/01/10 04:16:12;;;;;;;23.50;17.87;;;-2.70;99.90;;;-2.13;82.88;98475.34;5250366;28;20211;-81
2021/01/10 04:18:44;;;;;;;23.43;17.73;;;-2.80;99.90;;;-2.09;82.75;98473.38;5249554;28;20262;-81
2021/01/10 04:21:17;;;;;;;19.60;16.13;;;-2.80;99.90;;;-2.15;83.24;98471.75;5248256;28;20256;-79
2021/01/10 04:23:49;;;;;;;22.10;17.57;;;-2.80;99.90;;;-2.13;83.40;98471.22;5249328;28;20219;-81
2021/01/10 04:26:22;;;;;;;23.37;17.93;;;-2.70;99.90;;;-2.11;83.36;98469.81;5249715;28;20303;-81
2021/01/10 04:28:55;;;;;;;22.57;17.87;;;-2.70;99.90;;;-2.01;83.98;98469.25;5242857;28;20200;-81
2021/01/10 04:31:26;;;;;;;22.73;17.73;;;-2.60;99.90;;;-1.99;82.88;98469.44;5228695;28;20205;-82
2021/01/10 04:33:59;;;;;;;21.17;17.53;;;-2.60;99.90;;;-2.03;82.53;98470.69;5235640;28;20234;-82
2021/01/10 04:36:31;;;;;;;21.83;16.80;;;-2.70;99.90;;;-2.00;83.82;98477.63;5245817;28;20571;-80
2021/01/10 04:39:03;;;;;;;22.93;16.77;;;-2.60;99.90;;;-1.97;83.45;98476.41;5228632;28;20208;-81
2021/01/10 04:41:36;;;;;;;21.90;16.87;;;-2.60;99.90;;;-2.06;83.84;98476.25;5241609;28;20382;-82
2021/01/10 04:44:09;;;;;;;21.10;16.67;;;-2.70;99.90;;;-1.99;83.37;98475.31;5250466;28;20665;-82
2021/01/10 04:46:42;;;;;;;21.03;16.43;;;-2.70;99.90;;;-1.97;82.98;98476.41;5243790;28;20740;-82
2021/01/10 04:49:14;;;;;;;20.33;16.23;;;-2.60;99.90;;;-1.87;83.27;98478.34;5228729;28;20212;-82
2021/01/10 04:51:47;;;;;;;21.90;17.27;;;-2.60;99.90;;;-1.88;84.03;98474.94;5233578;28;20219;-82
2021/01/10 04:54:22;;;;;;;20.13;16.03;;;-2.50;99.90;;;-1.84;83.70;98476.19;5250012;28;20203;-82
2021/01/10 04:56:57;;;;;;;22.70;16.93;;;-2.50;99.90;;;-1.82;82.64;98473.13;5237488;28;20601;-81
2021/01/10 04:59:30;;;;;;;21.23;16.10;;;-2.50;99.90;;;-1.73;82.60;98472.41;5248981;28;20203;-82
2021/01/10 05:02:08;;;;;;;22.23;16.50;;;-2.50;99.90;;;-1.70;82.29;98472.75;5242163;28;20212;-82
2021/01/10 05:04:40;;;;;;;22.90;17.20;;;-2.40;99.90;;;-1.67;82.86;98480.59;5244903;28;20193;-82
2021/01/10 05:07:15;;;;;;;21.53;18.03;;;-2.40;99.90;;;-1.66;82.28;98482.38;5248964;28;20287;-81
2021/01/10 05:09:47;;;;;;;20.93;17.57;;;-2.50;99.90;;;-1.61;83.60;98486.31;5248723;28;20200;-82
2021/01/10 05:12:19;;;;;;;19.93;17.27;;;-2.50;99.90;;;-1.65;82.53;98491.69;5240373;28;20228;-82
2021/01/10 05:14:52;;;;;;;24.33;18.50;;;-2.50;99.90;;;-1.62;83.63;98487.03;5228358;28;20198;-81
2021/01/10 05:17:24;;;;;;;21.90;17.03;;;-2.50;99.90;;;-1.68;82.72;98484.72;5229217;28;20284;-83
2021/01/10 05:19:56;;;;;;;21.83;16.53;;;-2.50;99.90;;;-1.62;82.64;98479.53;5227667;28;20194;-83
2021/01/10 05:22:28;;;;;;;19.90;17.33;;;-2.50;99.90;;;-1.69;81.73;98492.06;5232485;28;20250;-81
2021/01/10 05:25:12;;;;;;;19.87;16.20;;;-2.50;99.90;;;-1.77;82.50;98490.28;5226833;28;20216;-80
2021/01/10 05:27:49;;;;;;;18.97;15.90;;;-2.50;99.90;;;-1.84;83.84;98487.09;5237496;28;20203;-81
2021/01/10 05:30:30;;;;;;;17.53;15.53;;;-2.50;99.90;;;-1.76;83.74;98484.56;5248577;28;20192;-82
2021/01/10 05:33:04;;;;;;;17.73;15.80;;;-2.50;99.90;;;-1.78;84.42;98491.91;5241213;28;20260;-82
2021/01/10 05:35:50;;;;;;;19.17;15.33;;;-2.50;99.90;;;-1.78;83.63;98474.38;5249304;28;20200;-81
2021/01/10 05:38:30;;;;;;;20.77;15.73;;;-2.40;99.90;;;-1.73;84.77;98478.28;5234254;28;20726;-82
2021/01/10 05:41:10;;;;;;;21.27;16.17;;;-2.50;99.90;;;-1.74;83.72;98475.63;5227511;28;20187;-82
2021/01/10 05:43:59;;;;;;;21.30;16.00;;;-2.60;99.90;;;-1.83;83.74;98483.88;5226752;28;20209;-82
2021/01/10 05:46:32;;;;;;;17.93;15.23;;;-2.60;99.90;;;-1.72;82.81;98484.19;5234225;28;20634;-80
2021/01/10 05:49:04;;;;;;;19.10;16.07;;;-2.50;99.90;;;-1.77;83.98;98477.75;5247454;28;20216;-83
2021/01/10 05:51:36;;;;;;;20.60;16.60;;;-2.50;99.90;;;-1.79;82.76;98484.22;5245391;28;20664;-82
2021/01/10 05:54:08;;;;;;;22.43;17.53;;;-2.50;99.90;;;-1.84;84.82;98483.69;5246617;28;20213;-82
2021/01/10 05:56:41;;;;;;;20.43;16.27;;;-2.50;99.90;;;-1.76;83.34;98484.56;5247581;28;20687;-80
2021/01/10 05:59:13;;;;;;;20.07;16.73;;;-2.50;99.90;;;-1.81;84.07;98492.44;5241430;28;20197;-82
2021/01/10 06:01:54;;;;;;;22.13;16.80;;;-2.60;99.90;;;-1.79;82.74;98486.72;5235001;28;20288;-82
2021/01/10 06:04:28;;;;;;;20.30;16.50;;;-2.60;99.90;;;-1.91;83.38;98492.13;5238836;28;20235;-82
2021/01/10 06:07:00;;;;;;;23.17;17.40;;;-2.60;99.90;;;-1.91;83.68;98493.75;5251500;28;20200;-82
2021/01/10 06:09:45;;;;;;;22.60;17.47;;;-2.60;99.90;;;-1.90;84.58;98491.41;5242503;28;20198;-82
2021/01/10 06:12:21;;;;;;;20.77;17.67;;;-2.60;99.90;;;-1.88;83.08;98494.09;5236191;28;20216;-80
2021/01/10 06:15:11;;;;;;;21.57;17.43;;;-2.60;99.90;;;-1.91;84.44;98494.63;5249539;28;20254;-81
2021/01/10 06:17:46;;;;;;;21.73;16.77;;;-2.60;99.90;;;-1.91;83.34;98491.25;5238364;28;20197;-81
2021/01/10 06:20:24;;;;;;;20.57;16.63;;;-2.60;99.90;;;-1.89;84.39;98500.72;5244256;28;20195;-83
2021/01/10 06:22:58;;;;;;;20.47;17.23;;;-2.60;99.90;;;-1.89;83.45;98493.22;5250377;28;20672;-82
2021/01/10 06:25:33;;;;;;;24.60;17.70;;;-2.60;99.90;;;-1.92;82.88;98500.34;5245801;28;20211;-82
2021/01/10 06:28:11;;;;;;;24.33;18.00;;;-2.70;99.90;;;-1.95;83.24;98497.47;5251161;28;20200;-82
2021/01/10 06:30:58;;;;;;;20.33;16.87;;;-2.70;99.90;;;-1.97;84.38;98498.06;5234407;28;20221;-82
2021/01/10 06:33:32;;;;;;;22.27;17.60;;;-2.70;99.90;;;-1.97;84.13;98491.44;5231988;28;20228;-81
2021/01/10 06:36:06;;;;;;;24.57;18.80;;;-2.70;99.90;;;-1.95;83.70;98496.59;5229936;28;20730;-82
2021/01/10 06:38:39;;;;;;;25.17;18.73;;;-2.60;99.90;;;-2.11;84.38;98498.97;5229832;28;20291;-79
2021/01/10 06:41:58;;;;;;;21.93;18.03;;;-2.80;99.90;;;-2.01;84.49;98495.91;5229615;28;20201;-81
2021/01/10 06:44:35;;;;;;;21.63;17.43;;;-2.70;99.90;;;-1.97;84.24;98495.56;5229235;28;20683;-82
2021/01/10 06:47:15;;;;;;;23.17;17.83;;;-2.70;99.90;;;-1.95;83.49;98494.09;5242691;28;20197;-81
2021/01/10 06:49:49;;;;;;;20.63;17.03;;;-2.70;99.90;;;-1.96;84.23;98493.19;5235987;28;20646;-81
2021/01/10 06:52:27;;;;;;;19.40;16.57;;;-2.60;99.90;;;-1.92;83.57;98496.94;5234053;28;20216;-81
2021/01/10 06:55:00;;;;;;;24.87;17.67;;;-2.60;99.90;;;-1.90;83.90;98498.91;5239168;28;20196;-79
2021/01/10 06:57:33;;;;;;;20.80;17.27;;;-2.60;99.90;;;-1.97;82.77;98503.06;5245409;28;20201;-80
2021/01/10 07:00:09;;;;;;;19.20;16.77;;;-2.70;99.90;;;-1.98;83.10;98504.66;5230309;28;20284;-82
2021/01/10 07:03:08;;;;;;;20.40;16.90;;;-2.70;99.90;;;-1.96;83.69;98508.22;5228565;28;20228;-81
2021/01/10 07:06:02;;;;;;;21.10;17.63;;;-2.70;99.90;;;-1.98;83.07;98516.28;5228993;28;20227;-82
2021/01/10 07:08:42;;;;;;;20.27;17.33;;;-2.70;99.90;;;-2.04;83.46;98519.84;5230656;28;20197;-83
2021/01/10 07:11:39;;;;;;;18.33;15.10;;;-2.80;99.90;;;-2.00;84.08;98513.63;5228615;28;20197;-81
2021/01/10 07:14:29;;;;;;;20.70;16.63;;;-2.70;99.90;;;-2.06;83.29;98518.81;5217513;28;20247;-83
2021/01/10 07:17:15;;;;;;;21.43;16.53;;;-2.70;99.90;;;-2.01;83.71;98529.34;5241799;28;20574;-83
2021/01/10 07:19:52;;;;;;;20.40;16.50;;;-2.70;99.90;;;-2.13;82.52;98516.28;5230735;28;20642;-81
2021/01/10 07:22:32;;;;;;;19.93;16.00;;;-2.80;99.90;;;-2.08;84.12;98509.34;5247384;28;20602;-80
2021/01/10 07:25:35;;;;;;;21.77;16.50;;;-2.70;99.90;;;-2.05;84.45;98514.69;5250231;28;20268;-80
2021/01/10 07:28:41;;;;;;;22.10;18.57;;;-2.80;99.90;;;-2.01;83.97;98516.81;5241174;28;20196;-82
2021/01/10 07:31:22;;;;;;;20.07;17.03;;;-2.70;99.90;;;-2.04;83.39;98508.94;5185655;28;20683;-78
2021/01/10 07:34:11;;;;;;;18.50;16.47;;;-2.70;99.90;;;-2.08;83.48;98519.34;5242849;28;20224;-82
2021/01/10 07:36:52;;;;;;;20.97;16.30;;;-2.80;99.90;;;-2.03;84.12;98518.28;5236745;28;20201;-82
2021/01/10 07:39:29;;;;;;;22.07;18.33;;;-2.70;99.90;;;-2.08;83.66;98505.22;5247257;28;20192;-80
2021/01/10 07:42:18;;;;;;;19.30;17.00;;;-2.80;99.90;;;-2.00;84.77;98518.63;5230612;28;20221;-81
2021/01/10 07:44:53;;;;;;;21.33;18.10;;;-2.70;99.90;;;-2.07;84.49;98508.59;5228834;28;20285;-82
2021/01/10 07:47:44;;;;;;;22.37;18.53;;;-2.70;99.90;;;-1.92;83.83;98520.38;5234761;28;20200;-83
2021/01/10 07:50:22;;;;;;;19.93;17.67;;;-2.70;99.90;;;-1.92;83.41;98522.88;5230510;28;20284;-81
2021/01/10 07:52:56;;;;;;;22.47;17.90;;;-2.70;99.90;;;-1.97;82.28;98518.97;5247187;28;20231;-81
2021/01/10 07:55:31;;;;;;;19.67;16.50;;;-2.70;99.90;;;-1.96;84.13;98523.25;5231808;28;20196;-80
2021/01/10 07:58:17;;;;;;;19.27;16.27;;;-2.70;99.90;;;-1.90;84.14;98525.56;5231026;28;20752;-81
2021/01/10 08:00:53;;;;;;;21.10;17.10;;;-2.60;99.90;;;-1.88;83.08;98529.16;5227219;28;20209;-83
2021/01/10 08:03:27;;;;;;;22.50;17.80;;;-2.60;99.90;;;-1.81;84.12;98532.53;5237373;28;20298;-81
2021/01/10 08:06:05;;;;;;;21.50;17.77;;;-2.60;99.90;;;-1.78;83.48;98536.09;5234032;28;20195;-80
2021/01/10 08:08:43;;;;;;;20.83;17.43;;;-2.50;99.90;;;-1.72;83.66;98537.69;5230884;28;20578;-80
2021/01/10 08:11:31;;;;;;;20.37;18.17;;;-2.50;99.90;;;-1.78;81.95;98529.47;5238443;28;20578;-80
2021/01/10 08:14:11;;;;;;;20.43;17.93;;;-2.50;99.90;;;-1.79;82.13;98540.22;5247030;28;20220;-80
2021/01/10 08:16:43;;;;;;;23.57;18.63;;;-2.50;99.90;;;-1.80;83.18;98543.47;5248663;28;20211;-80
2021/01/10 08:19:16;;;;;;;24.87;19.07;;;-2.50;99.90;;;-1.86;81.83;98548.66;5248500;28;20253;-81
2021/01/10 08:21:48;;;;;;;22.77;19.30;;;-2.50;99.90;;;-1.70;82.50;98538.78;5248079;28;20227;-80
2021/01/10 08:24:21;;;;;;;23.70;18.50;;;-2.50;99.90;;;-1.61;83.25;98539.81;5248146;28;20216;-80
2021/01/10 08:26:54;;;;;;;23.70;18.50;;;-2.40;99.90;;;-1.69;82.83;98534.66;5245911;28;20228;-82
2021/01/10 08:29:26;;;;;;;24.43;18.40;;;-2.30;99.90;;;-1.57;82.99;98541.09;5240573;28;20284;-80
2021/01/10 08:31:59;;;;;;;24.80;18.63;;;-2.20;99.90;;;-1.47;82.68;98535.50;5248499;28;20220;-80
2021/01/10 08:34:45;;;;;;;24.13;19.60;;;-2.20;99.90;;;-1.47;83.63;98535.50;5242056;28;20219;-81
2021/01/10 08:37:22;;;;;;;25.83;21.33;;;-2.10;99.90;;;-1.30;83.34;98532.41;5237532;28;20288;-80
2021/01/10 08:40:02;;;;;;;24.33;19.33;;;-2.00;99.90;;;-1.17;83.07;98538.09;5233740;28;20197;-81
2021/01/10 08:42:36;;;;;;;24.87;21.07;;;-1.80;99.90;;;-1.02;82.55;98529.75;5227007;28;20221;-80
2021/01/10 08:45:20;;;;;;;25.07;19.10;;;-1.70;99.90;;;-0.89;82.58;98531.13;5230463;28;20280;-80
2021/01/10 08:47:53;;;;;;;23.53;19.13;;;-1.60;99.90;;;-0.87;82.64;98529.69;5239646;28;20246;-81
2021/01/10 08:50:25;;;;;;;21.43;18.53;;;-1.60;99.90;;;-0.89;81.87;98527.00;5239684;28;20455;-81
2021/01/10 08:52:59;;;;;;;24.20;19.77;;;-1.60;99.90;;;-0.73;80.88;98529.59;5240146;28;20225;-81
2021/01/10 08:55:34;;;;;;;24.13;18.77;;;-1.60;99.90;;;-0.65;81.10;98527.94;5237188;28;20221;-81
2021/01/10 08:58:10;;;;;;;25.67;19.87;;;-1.50;99.90;;;-0.52;81.22;98521.03;5235708;28;20195;-80
2021/01/10 09:00:43;;;;;;;23.33;19.70;;;-1.20;99.90;;;-0.16;80.61;98530.81;5228287;28;20281;-80
2021/01/10 09:03:17;;;;;;;23.37;20.83;;;-1.00;99.90;;;0.04;79.76;98530.44;5234410;28;20217;-79
2021/01/10 09:05:49;;;;;;;22.00;19.70;;;-0.70;99.90;;;0.08;79.62;98530.03;5248136;28;20624;-80
2021/01/10 09:08:31;;;;;;;26.53;22.80;;;-0.60;99.90;;;0.33;78.72;98528.53;5247948;28;20562;-80
2021/01/10 09:11:08;;;;;;;25.80;21.87;;;-0.40;99.90;;;0.55;78.29;98529.22;5248170;28;20638;-81
2021/01/10 09:13:44;;;;;;;23.23;20.10;;;-0.30;99.90;;;0.51;78.46;98519.53;5247962;28;20226;-81
2021/01/10 09:16:17;;;;;;;22.63;19.63;;;-0.20;99.90;;;0.69;77.66;98511.44;5233792;28;20636;-81
2021/01/10 09:18:55;;;;;;;20.23;17.33;;;-0.10;99.90;;;0.98;75.64;98508.56;5227596;28;20232;-81
2021/01/10 09:21:28;;;;;;;21.30;18.70;;;0.20;99.90;;;0.89;75.71;98513.53;5231049;28;20185;-80
2021/01/10 09:24:02;;;;;;;22.13;19.00;;;0.20;99.90;;;0.88;76.43;98524.31;5242334;28;20213;-81
2021/01/10 09:26:35;;;;;;;21.30;19.20;;;0.20;99.90;;;0.83;77.04;98526.38;5228092;28;20204;-81
2021/01/10 09:29:18;;;;;;;20.17;17.60;;;0.10;99.90;;;1.02;76.11;98524.13;5240648;28;20193;-80
2021/01/10 09:31:51;;;;;;;27.00;20.77;;;0.30;99.90;;;1.04;76.33;98514.22;5245221;28;20196;-81
2021/01/10 09:34:25;;;;;;;39.00;28.10;;;0.20;99.90;;;1.07;76.97;98512.03;5245163;28;20863;-81
2021/01/10 09:37:06;;;;;;;22.87;18.83;;;0.20;99.90;;;1.06;77.58;98502.69;5245714;28;20202;-82
2021/01/10 09:39:44;;;;;;;22.07;18.43;;;0.30;99.90;;;1.20;77.24;98510.03;5232809;28;20281;-81
2021/01/10 09:42:18;;;;;;;20.77;18.07;;;0.40;99.90;;;1.30;77.41;98512.78;5225714;28;20221;-80
2021/01/10 09:44:55;;;;;;;21.27;18.07;;;0.40;99.90;;;1.42;77.04;98504.69;5224778;28;20205;-82
2021/01/10 09:47:35;;;;;;;21.27;18.37;;;0.60;99.90;;;1.57;76.43;98516.31;5232484;28;20645;-82
2021/01/10 09:50:15;;;;;;;22.30;19.97;;;0.60;99.90;;;1.50;76.53;98511.41;5246727;28;20203;-82
2021/01/10 09:52:49;;;;;;;20.97;18.70;;;0.70;99.90;;;1.59;76.61;98514.88;5233818;28;20224;-81
2021/01/10 09:55:25;;;;;;;21.63;19.33;;;0.70;99.90;;;1.65;76.69;98497.84;5226823;28;20191;-81
2021/01/10 09:57:57;;;;;;;20.40;17.87;;;0.80;99.90;;;1.83;75.30;98498.81;5228413;28;20195;-80
2021/01/10 10:00:30;;;;;;;20.37;16.80;;;0.80;99.90;;;1.82;76.43;98506.22;5231193;28;20213;-80
2021/01/10 10:03:09;;;;;;;23.00;18.40;;;0.90;99.90;;;1.82;77.11;98503.72;5227106;28;20274;-81
2021/01/10 10:05:56;;;;;;;18.70;16.83;;;1.10;99.90;;;1.99;77.14;98506.28;5243361;28;20200;-79
2021/01/10 10:08:28;;;;;;;19.03;16.80;;;1.20;99.90;;;2.08;77.28;98506.31;5237419;28;20200;-81
2021/01/10 10:11:00;;;;;;;16.93;15.13;;;1.30;99.90;;;2.07;78.26;98499.50;5225965;28;20299;-81
2021/01/10 10:13:32;;;;;;;18.13;16.30;;;1.40;99.90;;;2.13;78.28;98503.53;5229948;28;20236;-82
2021/01/10 10:16:07;;;;;;;17.57;15.77;;;1.40;99.90;;;2.10;76.60;98499.81;5233968;28;20216;-80
2021/01/10 10:18:43;;;;;;;15.67;13.87;;;1.50;99.90;;;2.18;76.00;98509.91;5225325;28;20207;-81
2021/01/10 10:21:15;;;;;;;16.67;14.57;;;1.50;99.90;;;2.26;76.34;98493.00;5226669;28;20201;-80
2021/01/10 10:23:47;;;;;;;16.47;14.60;;;1.60;99.90;;;2.28;76.02;98499.09;5246871;28;20593;-80
2021/01/10 10:26:19;;;;;;;14.97;13.13;;;1.60;99.90;;;2.51;75.46;98481.19;5244141;28;20740;-80
2021/01/10 10:28:51;;;;;;;14.37;12.50;;;1.80;99.90;;;2.42;74.90;98482.81;5244557;28;20637;-81
2021/01/10 10:31:24;;;;;;;15.43;13.27;;;1.80;99.90;;;2.54;74.39;98486.53;5240152;28;20204;-81
2021/01/10 10:33:56;;;;;;;15.40;12.70;;;1.90;99.90;;;2.48;73.31;98490.97;5232312;28;20223;-81
2021/01/10 10:36:28;;;;;;;15.40;12.40;;;1.80;99.90;;;2.58;73.47;98486.09;5228007;28;20638;-81
2021/01/10 10:39:01;;;;;;;13.43;12.03;;;2.00;99.90;;;2.50;72.00;98483.56;5230931;28;20204;-80
2021/01/10 10:41:33;;;;;;;13.77;11.57;;;2.00;99.90;;;2.63;73.51;98477.34;5246086;28;20233;-83
2021/01/10 10:44:06;;;;;;;13.03;11.60;;;2.00;99.90;;;2.34;71.81;98471.06;5246846;28;20573;-81